Time;durP1;ratioP1;P1;durP2;ratioP2;P2;SDS_P1;SDS_P2;PMS_P1;PMS_P2;Temp;Humidity;BMP_temperature;BMP_pressure;BME280_temperature;BME280_humidity;BME280_pressure;Samples;Min_cycle;Max_cycle;Signal;HPM_P1;HPM_P2
2023/01/15 00:00:28;;;;;;;17.90;11.35;;;10.00;96.70;;;;;;4980991;28;20047;-76
2023/01/15 00:02:56;;;;;;;21.67;11.95;;;10.00;96.70;;;;;;4967669;28;20153;-76
2023/01/15 00:05:26;;;;;;;15.30;10.95;;;10.00;96.70;;;;;;4962624;28;20061;-76
2023/01/15 00:07:54;;;;;;;19.25;11.30;;;10.00;96.70;;;;;;4995722;28;20050;-76
2023/01/15 00:10:23;;;;;;;16.20;10.32;;;10.00;96.70;;;;;;4981341;28;20136;-76
2023/01/15 00:12:51;;;;;;;14.82;10.00;;;9.90;96.70;;;;;;4974857;28;20047;-76
2023/01/15 00:15:20;;;;;;;14.40;10.13;;;9.90;96.70;;;;;;4973788;28;20053;-77
2023/01/15 00:17:49;;;;;;;16.25;9.85;;;9.90;96.70;;;;;;4971621;28;20389;-77
2023/01/15 00:20:17;;;;;;;17.70;10.57;;;9.90;96.70;;;;;;4964181;28;20046;-76
2023/01/15 00:22:47;;;;;;;15.60;10.18;;;9.90;96.70;;;;;;4982105;28;20050;-77
2023/01/15 00:28:02;;;;;;;;;;;9.90;96.70;;;;;;4983476;28;20138;-76
2023/01/15 00:30:30;;;;;;;18.90;11.77;;;9.90;96.70;;;;;;4982338;28;19969;-76
2023/01/15 00:32:59;;;;;;;16.65;9.88;;;9.90;96.70;;;;;;4969159;28;20054;-76
2023/01/15 00:35:27;;;;;;;15.73;9.63;;;9.80;96.70;;;;;;4966424;28;20867;-76
2023/01/15 00:37:59;;;;;;;13.98;9.40;;;9.80;96.70;;;;;;4965889;28;20513;-76
2023/01/15 00:40:27;;;;;;;14.02;9.50;;;9.90;96.70;;;;;;4972723;28;20046;-76
2023/01/15 00:42:55;;;;;;;14.05;9.07;;;9.80;96.70;;;;;;4969695;28;20046;-77
2023/01/15 00:45:23;;;;;;;15.70;9.55;;;9.80;96.70;;;;;;4979690;28;20150;-76
2023/01/15 00:47:52;;;;;;;14.50;9.68;;;9.80;96.70;;;;;;4981106;28;20507;-77
2023/01/15 00:50:20;;;;;;;13.60;9.30;;;9.80;96.70;;;;;;4965465;28;20043;-76
2023/01/15 00:52:49;;;;;;;12.73;8.88;;;9.70;96.70;;;;;;4973490;28;20055;-76
2023/01/15 00:55:19;;;;;;;11.48;8.55;;;9.70;96.70;;;;;;4974261;28;20050;-76
2023/01/15 00:57:47;;;;;;;13.15;7.72;;;9.70;96.70;;;;;;4984141;28;20074;-76
2023/01/15 01:00:16;;;;;;;12.27;7.90;;;9.70;96.70;;;;;;4985057;28;20043;-76
2023/01/15 01:02:44;;;;;;;14.23;8.77;;;9.70;96.70;;;;;;4974979;28;20106;-76
2023/01/15 01:05:12;;;;;;;11.85;7.78;;;9.60;96.70;;;;;;4983787;28;20636;-76
2023/01/15 01:07:41;;;;;;;12.77;8.07;;;9.70;96.70;;;;;;4985396;28;20377;-77
2023/01/15 01:10:12;;;;;;;13.15;7.68;;;9.70;96.70;;;;;;4979303;28;20051;-76
2023/01/15 01:12:42;;;;;;;15.70;8.63;;;9.70;96.70;;;;;;4984009;28;20050;-76
2023/01/15 01:15:11;;;;;;;13.98;7.75;;;9.70;96.70;;;;;;4983635;28;20050;-76
2023/01/15 01:17:39;;;;;;;11.48;8.10;;;9.60;96.70;;;;;;4975410;28;20078;-76
2023/01/15 01:20:11;;;;;;;11.98;8.70;;;9.70;96.70;;;;;;4982383;28;20156;-76
2023/01/15 01:22:40;;;;;;;13.80;8.32;;;9.60;96.70;;;;;;4964244;28;20059;-76
2023/01/15 01:25:09;;;;;;;10.20;7.45;;;9.60;96.70;;;;;;4983810;28;20133;-76
2023/01/15 01:27:37;;;;;;;9.85;7.78;;;9.60;96.70;;;;;;4971495;28;20138;-77
2023/01/15 01:30:09;;;;;;;14.98;7.28;;;9.60;96.70;;;;;;4976712;28;20050;-76
2023/01/15 01:32:38;;;;;;;13.98;7.07;;;9.60;96.70;;;;;;4983709;28;20046;-77
2023/01/15 01:35:06;;;;;;;10.68;7.15;;;9.50;96.70;;;;;;4974640;28;20062;-76
2023/01/15 01:37:35;;;;;;;10.98;6.95;;;9.60;96.70;;;;;;4977676;28;20043;-76
2023/01/15 01:40:03;;;;;;;10.13;7.00;;;9.60;96.70;;;;;;4983352;28;20052;-76
2023/01/15 01:42:32;;;;;;;13.60;7.15;;;9.60;96.70;;;;;;4973015;28;20047;-76
2023/01/15 01:45:05;;;;;;;11.05;6.57;;;9.60;96.70;;;;;;4970170;28;20469;-76
2023/01/15 01:47:35;;;;;;;10.85;6.90;;;9.50;96.70;;;;;;4978833;28;20083;-76
2023/01/15 01:50:08;;;;;;;10.02;6.35;;;9.50;96.70;;;;;;4983506;28;20062;-76
2023/01/15 01:52:42;;;;;;;9.73;6.30;;;9.50;96.70;;;;;;4989516;28;20504;-77
2023/01/15 01:55:12;;;;;;;11.18;7.00;;;9.60;96.70;;;;;;4959630;28;20137;-76
2023/01/15 01:57:41;;;;;;;10.32;6.68;;;9.60;96.70;;;;;;4982029;28;20053;-75
2023/01/15 02:00:14;;;;;;;12.52;6.63;;;9.60;96.70;;;;;;4997888;28;20050;-76
2023/01/15 02:02:46;;;;;;;10.80;6.60;;;9.60;96.70;;;;;;4982476;28;20054;-76
2023/01/15 02:05:27;;;;;;;9.13;6.13;;;9.60;96.70;;;;;;4976735;28;20050;-76
2023/01/15 02:07:56;;;;;;;9.30;6.05;;;9.70;96.70;;;;;;4981514;28;20085;-76
2023/01/15 02:10:24;;;;;;;12.15;6.70;;;9.70;96.70;;;;;;4975817;28;20039;-76
2023/01/15 02:13:00;;;;;;;8.38;5.57;;;9.70;96.70;;;;;;4983455;28;20496;-76
2023/01/15 02:15:34;;;;;;;8.93;5.95;;;9.70;96.70;;;;;;4979588;28;20082;-77
2023/01/15 02:18:10;;;;;;;10.43;6.72;;;9.70;96.70;;;;;;4975091;28;20508;-76
2023/01/15 02:20:44;;;;;;;7.28;5.22;;;9.70;96.70;;;;;;4972584;28;20058;-77
2023/01/15 02:23:34;;;;;;;7.93;5.18;;;9.70;96.70;;;;;;4967313;28;20054;-77
2023/01/15 02:26:19;;;;;;;8.68;5.13;;;9.70;96.70;;;;;;4949566;28;20054;-76
2023/01/15 02:28:53;;;;;;;12.63;5.78;;;9.60;96.70;;;;;;4948210;28;20046;-76
2023/01/15 02:31:26;;;;;;;8.40;5.25;;;9.60;96.70;;;;;;4970208;28;20100;-77
2023/01/15 02:33:58;;;;;;;7.30;5.03;;;9.70;96.70;;;;;;4974717;28;20622;-76
2023/01/15 02:36:30;;;;;;;10.70;5.32;;;9.70;96.70;;;;;;4981173;28;20061;-77
2023/01/15 02:39:04;;;;;;;9.10;5.15;;;9.70;96.70;;;;;;4975688;28;20615;-78
2023/01/15 02:41:37;;;;;;;7.88;4.78;;;9.70;96.70;;;;;;4979605;28;20046;-76
2023/01/15 02:44:09;;;;;;;11.10;5.57;;;9.70;96.70;;;;;;4995956;28;20117;-77
2023/01/15 02:46:40;;;;;;;8.88;4.80;;;9.70;96.70;;;;;;4998493;28;20054;-77
2023/01/15 02:49:13;;;;;;;10.15;5.43;;;9.70;96.70;;;;;;4989632;28;20042;-77
2023/01/15 02:51:47;;;;;;;9.20;4.75;;;9.70;96.70;;;;;;4995514;28;20054;-77
2023/01/15 02:54:22;;;;;;;8.27;5.43;;;9.70;96.70;;;;;;4981708;28;20057;-77
2023/01/15 02:56:54;;;;;;;9.18;5.55;;;9.70;96.70;;;;;;4966266;28;20112;-77
2023/01/15 02:59:29;;;;;;;9.40;6.10;;;9.70;96.70;;;;;;4970363;28;20212;-76
2023/01/15 03:02:01;;;;;;;10.70;5.15;;;9.70;96.70;;;;;;4974712;28;20062;-77
2023/01/15 03:04:33;;;;;;;7.95;5.07;;;9.70;96.70;;;;;;4963504;28;20465;-77
2023/01/15 03:07:06;;;;;;;7.32;4.90;;;9.70;96.70;;;;;;4971247;28;20051;-77
2023/01/15 03:09:37;;;;;;;8.15;5.05;;;9.70;96.70;;;;;;5000332;28;20069;-76
2023/01/15 03:12:13;;;;;;;9.05;5.53;;;9.70;96.70;;;;;;4968757;28;20059;-77
2023/01/15 03:14:51;;;;;;;7.65;5.03;;;9.70;96.70;;;;;;4948792;28;20141;-77
2023/01/15 03:17:23;;;;;;;8.05;4.80;;;9.70;96.70;;;;;;4965161;28;20074;-79
2023/01/15 03:19:57;;;;;;;8.27;5.75;;;9.70;96.70;;;;;;4988972;28;20062;-78
2023/01/15 03:22:30;;;;;;;8.45;4.78;;;9.70;96.70;;;;;;4981011;28;20133;-76
2023/01/15 03:25:02;;;;;;;8.20;4.90;;;9.70;96.70;;;;;;4975020;28;20614;-75
2023/01/15 03:27:34;;;;;;;;;;;9.70;96.70;;;;;;4963875;28;21052;-77
2023/01/15 03:30:08;;;;;;;9.90;5.25;;;9.70;96.70;;;;;;4963201;28;19926;-76
2023/01/15 03:32:38;;;;;;;9.43;5.70;;;9.70;96.70;;;;;;4971403;28;20047;-76
2023/01/15 03:35:27;;;;;;;8.30;5.40;;;9.70;96.70;;;;;;4970188;28;20416;-77
2023/01/15 03:37:56;;;;;;;7.80;4.95;;;9.70;96.70;;;;;;4989336;28;20153;-76
2023/01/15 03:40:24;;;;;;;8.80;5.20;;;9.60;96.70;;;;;;4980349;28;20050;-77
2023/01/15 03:45:54;;;;;;;8.93;5.45;;;9.60;96.70;;;;;;4990585;28;20050;-76
2023/01/15 03:48:29;;;;;;;8.57;4.68;;;9.60;96.70;;;;;;4981485;28;20050;-77
2023/01/15 03:51:04;;;;;;;7.93;4.95;;;9.60;96.70;;;;;;4982841;28;20080;-76
2023/01/15 03:53:39;;;;;;;7.85;4.97;;;9.60;96.70;;;;;;4963180;28;20059;-76
2023/01/15 03:56:13;;;;;;;7.88;4.90;;;9.60;96.70;;;;;;4962565;28;20049;-76
2023/01/15 03:58:51;;;;;;;8.75;5.03;;;9.70;96.70;;;;;;4965786;28;20607;-77
2023/01/15 04:01:32;;;;;;;9.77;4.88;;;9.70;96.70;;;;;;4963610;28;20039;-76
2023/01/15 04:04:02;;;;;;;10.20;5.10;;;9.60;96.70;;;;;;4980871;28;20762;-76
2023/01/15 04:06:33;;;;;;;8.10;4.93;;;9.60;96.70;;;;;;4960601;28;20599;-77
2023/01/15 04:09:06;;;;;;;6.00;4.72;;;9.60;96.70;;;;;;4989751;28;20046;-76
2023/01/15 04:11:34;;;;;;;7.25;4.63;;;9.60;96.70;;;;;;4975560;28;20057;-76
2023/01/15 04:14:05;;;;;;;6.80;4.40;;;9.60;96.70;;;;;;4969622;28;20043;-76
2023/01/15 04:16:44;;;;;;;6.85;4.38;;;9.60;96.70;;;;;;4970272;28;20353;-76
2023/01/15 04:19:13;;;;;;;8.65;4.70;;;9.60;96.70;;;;;;4968483;28;20101;-77
2023/01/15 04:21:57;;;;;;;7.57;4.30;;;9.60;96.70;;;;;;4987655;28;20539;-77
2023/01/15 04:24:25;;;;;;;7.63;4.78;;;9.60;96.70;;;;;;4985947;28;20050;-76
2023/01/15 04:26:53;;;;;;;6.93;4.82;;;9.70;96.70;;;;;;4971426;28;20034;-76
2023/01/15 04:29:21;;;;;;;6.45;4.72;;;9.60;96.70;;;;;;4983176;28;20058;-77
2023/01/15 04:31:56;;;;;;;7.65;4.75;;;9.60;96.70;;;;;;4978121;28;20047;-75
2023/01/15 04:34:25;;;;;;;8.82;4.65;;;9.60;96.70;;;;;;4974351;28;20130;-76
2023/01/15 04:36:53;;;;;;;10.02;4.63;;;9.60;96.70;;;;;;4977876;28;20042;-76
2023/01/15 04:39:21;;;;;;;7.13;4.63;;;9.60;96.70;;;;;;4976074;28;20076;-76
2023/01/15 04:44:36;;;;;;;7.47;4.43;;;9.50;96.70;;;;;;4986042;28;20073;-76
2023/01/15 04:47:06;;;;;;;6.82;4.32;;;9.50;96.70;;;;;;4989069;28;20833;-76
2023/01/15 04:49:34;;;;;;;7.68;4.95;;;9.50;96.70;;;;;;4971221;28;20571;-76
2023/01/15 04:52:02;;;;;;;7.40;5.25;;;9.50;96.70;;;;;;4973870;28;20058;-77
2023/01/15 04:54:30;;;;;;;6.80;4.45;;;9.50;96.70;;;;;;4966885;28;20514;-76
2023/01/15 04:56:58;;;;;;;8.38;5.00;;;9.50;96.70;;;;;;4965402;28;20034;-76
2023/01/15 04:59:26;;;;;;;7.05;4.68;;;9.50;96.70;;;;;;4978470;28;20633;-76
2023/01/15 05:01:55;;;;;;;8.18;4.70;;;9.40;96.70;;;;;;4969895;28;20120;-76
2023/01/15 05:04:35;;;;;;;5.50;3.92;;;9.40;96.70;;;;;;4982450;28;20054;-76
2023/01/15 05:07:04;;;;;;;7.45;4.32;;;9.40;96.70;;;;;;4983624;28;20053;-76
2023/01/15 05:09:32;;;;;;;8.20;4.45;;;9.40;96.70;;;;;;4966787;28;20464;-76
2023/01/15 05:12:00;;;;;;;6.40;4.10;;;9.30;96.70;;;;;;4976562;28;20508;-76
2023/01/15 05:14:28;;;;;;;5.90;4.13;;;9.30;96.70;;;;;;4985011;28;20046;-77
2023/01/15 05:16:56;;;;;;;5.18;3.95;;;9.30;96.70;;;;;;4984250;28;20124;-76
2023/01/15 05:19:24;;;;;;;5.63;3.85;;;9.40;96.70;;;;;;4983916;28;20751;-76
2023/01/15 05:21:54;;;;;;;5.47;3.80;;;9.30;96.70;;;;;;4982650;28;20408;-76
2023/01/15 05:24:22;;;;;;;6.15;3.78;;;9.30;96.70;;;;;;4963546;28;20186;-76
2023/01/15 05:26:50;;;;;;;6.15;3.92;;;9.30;96.70;;;;;;4968272;28;20043;-76
2023/01/15 05:29:18;;;;;;;7.35;4.03;;;9.30;96.70;;;;;;4970941;28;20106;-76
2023/01/15 05:31:46;;;;;;;7.13;3.92;;;9.30;96.70;;;;;;4965921;28;20055;-77
2023/01/15 05:34:14;;;;;;;6.00;3.80;;;9.20;96.70;;;;;;4997888;28;20082;-76
2023/01/15 05:36:42;;;;;;;6.13;3.92;;;9.20;96.70;;;;;;4975948;28;20066;-75
2023/01/15 05:39:12;;;;;;;5.57;3.53;;;9.20;96.70;;;;;;4967535;28;20496;-76
2023/01/15 05:41:48;;;;;;;8.98;4.13;;;9.30;96.70;;;;;;4980422;28;20525;-76
2023/01/15 05:44:20;;;;;;;10.80;4.38;;;9.30;96.70;;;;;;4967576;28;20838;-76
2023/01/15 05:46:49;;;;;;;7.72;3.83;;;9.20;96.70;;;;;;4966191;28;20051;-77
2023/01/15 05:49:18;;;;;;;6.03;3.45;;;9.20;96.70;;;;;;4990197;28;20047;-76
2023/01/15 05:51:47;;;;;;;5.20;3.83;;;9.20;96.70;;;;;;4973408;28;20105;-77
2023/01/15 05:54:18;;;;;;;6.53;3.50;;;9.20;96.70;;;;;;4964410;28;20043;-76
2023/01/15 05:56:47;;;;;;;7.32;3.75;;;9.20;96.70;;;;;;4972329;28;20050;-76
2023/01/15 05:59:17;;;;;;;7.28;4.25;;;9.20;96.70;;;;;;4983716;28;20038;-76
2023/01/15 06:01:45;;;;;;;7.45;3.63;;;9.20;96.70;;;;;;4984876;28;20069;-76
2023/01/15 06:04:14;;;;;;;5.85;3.17;;;9.20;96.70;;;;;;4980233;28;20051;-76
2023/01/15 06:06:42;;;;;;;5.00;3.45;;;9.20;96.70;;;;;;4979686;28;20046;-76
2023/01/15 06:09:10;;;;;;;4.00;3.47;;;9.20;96.70;;;;;;4981441;28;20053;-76
2023/01/15 06:11:40;;;;;;;7.15;3.60;;;9.20;96.70;;;;;;4983824;28;20381;-76
2023/01/15 06:14:09;;;;;;;6.78;3.75;;;9.20;96.70;;;;;;4972527;28;20052;-77
2023/01/15 06:16:37;;;;;;;7.22;3.28;;;9.20;96.70;;;;;;4979657;28;20048;-75
2023/01/15 06:19:11;;;;;;;6.15;3.67;;;9.30;96.70;;;;;;4975856;28;20069;-75
2023/01/15 06:21:39;;;;;;;6.28;3.97;;;9.40;96.70;;;;;;4976233;28;20069;-76
2023/01/15 06:24:08;;;;;;;5.82;4.38;;;9.40;96.70;;;;;;4972533;28;20096;-77
2023/01/15 06:26:38;;;;;;;7.55;3.90;;;9.40;96.70;;;;;;4982829;28;20042;-76
2023/01/15 06:29:07;;;;;;;7.10;3.72;;;9.40;96.70;;;;;;4982156;28;21206;-77
2023/01/15 06:31:35;;;;;;;4.53;3.67;;;9.40;96.70;;;;;;4971451;28;20462;-76
2023/01/15 06:34:03;;;;;;;6.50;4.15;;;9.40;96.70;;;;;;4969233;28;20066;-76
2023/01/15 06:36:31;;;;;;;5.20;3.55;;;9.50;96.70;;;;;;4966406;28;20053;-76
2023/01/15 06:38:59;;;;;;;4.78;3.70;;;9.50;96.70;;;;;;4982799;28;20046;-75
2023/01/15 06:47:21;;;;;;;9.18;4.28;;;9.60;96.70;;;;;;4964365;28;20054;-76
2023/01/15 06:49:52;;;;;;;7.70;3.80;;;9.60;96.70;;;;;;4969971;28;20062;-76
2023/01/15 06:52:21;;;;;;;7.18;4.07;;;9.60;96.70;;;;;;4957074;28;20713;-75
2023/01/15 06:54:49;;;;;;;6.68;4.15;;;9.60;96.70;;;;;;4980884;28;20654;-77
2023/01/15 06:57:20;;;;;;;6.65;4.40;;;9.60;96.70;;;;;;4965293;28;20073;-76
2023/01/15 06:59:49;;;;;;;6.75;4.55;;;9.60;96.70;;;;;;4979206;28;20474;-76
2023/01/15 07:02:18;;;;;;;8.25;4.90;;;9.70;96.70;;;;;;4981963;28;20646;-77
2023/01/15 07:04:46;;;;;;;8.05;4.85;;;9.70;96.70;;;;;;4965588;28;20546;-76
2023/01/15 07:07:14;;;;;;;8.25;4.68;;;9.70;96.70;;;;;;4982159;28;20081;-76
2023/01/15 07:09:42;;;;;;;10.02;5.03;;;9.70;96.70;;;;;;4981840;28;20070;-76
2023/01/15 07:12:10;;;;;;;7.60;3.88;;;9.70;96.70;;;;;;4973340;28;20297;-75
2023/01/15 07:14:38;;;;;;;5.72;3.53;;;9.70;96.70;;;;;;4978419;28;20408;-76
2023/01/15 07:17:08;;;;;;;6.78;3.90;;;9.80;96.70;;;;;;4981239;28;20056;-74
2023/01/15 07:19:36;;;;;;;7.63;3.53;;;9.80;96.70;;;;;;4972704;28;20061;-76
2023/01/15 07:22:04;;;;;;;7.78;3.83;;;9.90;96.70;;;;;;4974018;28;20042;-76
2023/01/15 07:24:32;;;;;;;6.15;3.22;;;9.80;96.70;;;;;;4979619;28;20065;-76
2023/01/15 07:27:00;;;;;;;5.68;2.65;;;9.80;96.70;;;;;;4976197;28;20271;-75
2023/01/15 07:29:28;;;;;;;4.53;2.72;;;9.70;96.70;;;;;;4970023;28;20090;-78
2023/01/15 07:31:58;;;;;;;7.55;3.00;;;9.70;96.70;;;;;;4980602;28;20054;-77
2023/01/15 07:34:27;;;;;;;5.63;3.55;;;9.70;96.70;;;;;;4982577;28;20043;-76
2023/01/15 07:36:55;;;;;;;6.50;3.17;;;9.70;96.70;;;;;;4963181;28;20124;-76
2023/01/15 07:39:23;;;;;;;6.07;3.67;;;9.70;96.70;;;;;;4962559;28;20054;-76
2023/01/15 07:50:16;;;;;;;4.72;2.78;;;9.80;96.70;;;;;;4978996;28;21798;-76
2023/01/15 07:52:43;;;;;;;6.95;3.50;;;9.70;96.70;;;;;;4973149;28;20100;-76
2023/01/15 07:55:12;;;;;;;8.10;2.80;;;9.80;96.70;;;;;;4973013;28;20054;-76
2023/01/15 07:57:40;;;;;;;5.95;2.72;;;9.80;96.70;;;;;;4988024;28;20129;-76
2023/01/15 08:00:11;;;;;;;7.38;4.80;;;9.70;96.70;;;;;;4980553;28;20039;-76
2023/01/15 08:02:39;;;;;;;6.20;4.20;;;9.70;96.70;;;;;;4973951;28;20052;-76
2023/01/15 08:05:08;;;;;;;9.05;3.83;;;9.70;96.70;;;;;;4970675;28;20054;-76
2023/01/15 08:07:39;;;;;;;5.72;3.10;;;9.70;96.70;;;;;;4973081;28;21598;-76
2023/01/15 08:10:09;;;;;;;5.50;3.35;;;9.70;96.70;;;;;;4974662;28;20523;-76
2023/01/15 08:15:24;;;;;;;;;;;9.70;96.70;;;;;;4981934;28;20149;-76
2023/01/15 08:17:52;;;;;;;5.75;2.90;;;9.70;96.70;;;;;;4984779;28;19929;-77
2023/01/15 08:20:24;;;;;;;4.68;3.03;;;9.70;96.70;;;;;;4981991;28;20070;-76
2023/01/15 08:22:54;;;;;;;4.47;3.10;;;9.70;96.70;;;;;;4981828;28;20049;-77
2023/01/15 08:25:24;;;;;;;4.55;2.97;;;9.70;96.70;;;;;;4980734;28;20042;-76
2023/01/15 08:27:53;;;;;;;5.15;3.75;;;9.70;96.70;;;;;;4982519;28;20455;-76
2023/01/15 08:30:22;;;;;;;7.63;3.70;;;9.70;96.70;;;;;;4980575;28;20073;-76
2023/01/15 08:32:51;;;;;;;5.82;3.78;;;9.70;96.70;;;;;;4977889;28;20047;-78
2023/01/15 08:35:19;;;;;;;6.45;4.38;;;9.60;96.70;;;;;;4977201;28;20054;-76
2023/01/15 08:37:47;;;;;;;6.53;4.95;;;9.70;96.70;;;;;;4997002;28;20046;-77
2023/01/15 08:40:17;;;;;;;7.60;4.60;;;9.70;96.70;;;;;;4976905;28;20128;-78
2023/01/15 08:42:46;;;;;;;11.88;4.82;;;9.80;96.70;;;;;;4971869;28;20112;-78
2023/01/15 08:45:14;;;;;;;7.32;4.72;;;9.90;96.70;;;;;;4974430;28;20046;-79
2023/01/15 08:47:42;;;;;;;7.22;4.13;;;9.90;96.70;;;;;;4978694;28;20043;-82
2023/01/15 08:50:11;;;;;;;8.18;4.55;;;10.00;96.70;;;;;;4969772;28;20043;-78
2023/01/15 08:52:40;;;;;;;5.95;3.95;;;10.00;96.70;;;;;;4983840;28;20145;-76
2023/01/15 08:55:08;;;;;;;6.32;4.28;;;10.00;96.70;;;;;;4982887;28;20038;-76
2023/01/15 08:57:38;;;;;;;5.30;3.50;;;10.00;96.70;;;;;;4973581;28;20055;-78
2023/01/15 09:00:08;;;;;;;6.25;3.50;;;10.10;96.70;;;;;;4962734;28;20734;-76
2023/01/15 09:02:36;;;;;;;6.78;3.90;;;10.10;96.70;;;;;;4982132;28;20481;-76
2023/01/15 09:05:05;;;;;;;8.10;3.72;;;10.10;96.70;;;;;;4985360;28;20042;-76
2023/01/15 09:07:34;;;;;;;6.20;3.97;;;10.10;96.70;;;;;;4983504;28;20500;-81
2023/01/15 09:10:03;;;;;;;6.07;3.45;;;10.10;96.70;;;;;;4972818;28;20153;-79
2023/01/15 09:12:31;;;;;;;7.28;3.85;;;10.20;96.70;;;;;;4971095;28;20057;-78
2023/01/15 09:15:01;;;;;;;6.32;3.63;;;10.20;96.70;;;;;;4975473;28;20124;-77
2023/01/15 09:17:31;;;;;;;9.82;4.57;;;10.30;96.70;;;;;;4978284;28;20495;-79
2023/01/15 09:20:01;;;;;;;15.70;10.05;;;10.20;96.70;;;;;;4982930;28;20062;-77
2023/01/15 09:22:30;;;;;;;10.98;6.60;;;10.20;96.70;;;;;;4971104;28;20089;-76
2023/01/15 09:24:58;;;;;;;12.70;9.50;;;10.30;96.70;;;;;;4965460;28;20043;-77
2023/01/15 09:27:27;;;;;;;9.00;6.60;;;10.40;96.70;;;;;;4981396;28;20120;-77
2023/01/15 09:29:55;;;;;;;10.82;7.47;;;10.40;96.70;;;;;;4974710;28;20043;-78
2023/01/15 09:32:26;;;;;;;9.63;5.47;;;10.50;96.70;;;;;;4965682;28;20089;-77
2023/01/15 09:34:55;;;;;;;8.77;5.40;;;10.50;96.70;;;;;;4964050;28;20054;-76
2023/01/15 09:37:23;;;;;;;9.48;6.25;;;10.60;96.70;;;;;;4965910;28;20051;-76
2023/01/15 09:39:51;;;;;;;8.45;4.80;;;10.60;96.70;;;;;;4966275;28;20109;-76
2023/01/15 09:42:37;;;;;;;10.13;4.93;;;10.70;96.70;;;;;;4974624;28;20061;-76
2023/01/15 09:45:21;;;;;;;10.35;6.00;;;10.70;96.70;;;;;;4980608;28;20117;-77
2023/01/15 09:48:17;;;;;;;8.50;4.90;;;10.80;96.70;;;;;;4978623;28;20042;-76
2023/01/15 09:50:56;;;;;;;7.72;4.30;;;10.80;96.70;;;;;;4981549;28;20046;-76
2023/01/15 09:53:41;;;;;;;11.98;6.32;;;10.80;96.70;;;;;;4974584;28;20047;-75
2023/01/15 09:56:22;;;;;;;6.90;4.93;;;10.90;96.70;;;;;;4997705;28;20093;-76
2023/01/15 09:58:52;;;;;;;6.10;4.35;;;11.10;96.70;;;;;;4974230;28;20663;-80
2023/01/15 10:01:26;;;;;;;6.63;4.75;;;11.20;96.70;;;;;;4970129;28;20082;-78
2023/01/15 10:04:03;;;;;;;5.93;4.18;;;11.30;96.70;;;;;;4978674;28;20904;-76
2023/01/15 10:06:40;;;;;;;10.13;5.90;;;11.50;96.70;;;;;;4959315;28;20054;-76
2023/01/15 10:09:13;;;;;;;8.00;5.15;;;11.60;96.70;;;;;;4971057;28;20039;-76
2023/01/15 10:14:38;;;;;;;7.63;4.78;;;11.70;96.70;;;;;;4988898;28;20058;-77
2023/01/15 10:17:18;;;;;;;8.35;4.20;;;11.60;96.70;;;;;;4982592;28;20054;-74
2023/01/15 10:19:48;;;;;;;9.40;4.63;;;11.60;96.70;;;;;;4982385;28;20057;-75
2023/01/15 10:22:31;;;;;;;10.43;5.07;;;11.60;96.70;;;;;;4978286;28;20053;-76
2023/01/15 10:25:03;;;;;;;7.03;4.88;;;11.60;96.70;;;;;;4990008;28;20145;-78
2023/01/15 10:27:32;;;;;;;7.03;5.43;;;11.70;96.70;;;;;;4984307;28;20523;-78
2023/01/15 10:30:05;;;;;;;8.45;5.55;;;11.70;96.70;;;;;;4982637;28;20050;-78
2023/01/15 10:32:45;;;;;;;8.57;5.93;;;11.90;96.70;;;;;;4964915;28;20050;-76
2023/01/15 10:35:42;;;;;;;9.68;6.22;;;12.00;96.70;;;;;;4967964;28;20042;-77
2023/01/15 10:38:19;;;;;;;10.85;5.55;;;12.00;96.70;;;;;;4981652;28;20555;-79
2023/01/15 10:41:21;;;;;;;7.63;5.40;;;11.90;96.70;;;;;;4982556;28;20784;-80
2023/01/15 10:43:56;;;;;;;7.13;4.47;;;11.90;96.70;;;;;;4977278;28;20580;-77
2023/01/15 10:46:32;;;;;;;9.77;5.18;;;12.00;96.70;;;;;;4957427;28;21099;-76
2023/01/15 10:49:05;;;;;;;7.88;4.70;;;11.90;96.70;;;;;;4971506;28;20042;-76
2023/01/15 10:51:40;;;;;;;8.23;4.70;;;11.90;96.70;;;;;;4971802;28;20038;-76
2023/01/15 10:54:19;;;;;;;8.67;4.20;;;12.00;96.70;;;;;;4966792;28;20042;-76
2023/01/15 10:56:55;;;;;;;9.15;4.88;;;12.00;96.70;;;;;;4976234;28;20049;-77
2023/01/15 10:59:34;;;;;;;11.00;5.20;;;12.00;96.70;;;;;;4976567;28;20140;-81
2023/01/15 11:02:12;;;;;;;7.93;4.47;;;12.00;96.70;;;;;;4978774;28;20050;-75
2023/01/15 11:04:41;;;;;;;10.43;4.18;;;12.00;96.70;;;;;;4996530;28;20525;-76
2023/01/15 11:07:13;;;;;;;7.80;4.25;;;12.00;96.70;;;;;;4981265;28;20070;-76
2023/01/15 11:09:42;;;;;;;6.10;3.65;;;12.10;96.70;;;;;;4978817;28;20069;-76
2023/01/15 11:20:29;;;;;;;8.02;3.88;;;12.30;96.70;;;;;;4981868;28;20066;-75
2023/01/15 11:23:08;;;;;;;5.63;4.00;;;12.20;96.70;;;;;;4997445;28;20051;-75
2023/01/15 11:25:38;;;;;;;8.25;4.18;;;12.30;96.70;;;;;;4982454;28;20053;-75
2023/01/15 11:28:08;;;;;;;8.38;4.22;;;12.20;96.70;;;;;;4983094;28;20061;-75
2023/01/15 11:30:37;;;;;;;13.35;5.00;;;12.10;96.70;;;;;;4973123;28;20050;-75
2023/01/15 11:33:28;;;;;;;8.68;4.95;;;12.20;96.70;;;;;;4983361;28;20069;-75
2023/01/15 11:35:58;;;;;;;8.48;5.93;;;12.20;96.70;;;;;;4971782;28;20038;-75
2023/01/15 11:38:29;;;;;;;7.40;5.25;;;12.20;96.70;;;;;;4973207;28;20588;-76
2023/01/15 11:40:59;;;;;;;9.35;4.68;;;12.20;96.70;;;;;;4978631;28;20417;-77
2023/01/15 11:52:07;;;;;;;12.18;5.13;;;12.40;96.70;;;;;;4982868;28;20046;-74
2023/01/15 11:54:40;;;;;;;10.27;5.53;;;12.50;96.70;;;;;;4965655;28;20051;-75
2023/01/15 11:57:10;;;;;;;9.60;6.00;;;12.60;96.70;;;;;;4971165;28;20043;-76
2023/01/15 11:59:39;;;;;;;10.90;5.68;;;12.60;96.70;;;;;;4966168;28;20043;-75
2023/01/15 12:02:20;;;;;;;10.93;5.60;;;12.60;96.70;;;;;;4980871;28;20054;-75
2023/01/15 12:04:57;;;;;;;8.93;5.40;;;12.60;96.70;;;;;;4976381;28;20518;-75
2023/01/15 12:07:25;;;;;;;10.75;6.50;;;12.70;96.70;;;;;;4981141;28;20481;-75
2023/01/15 12:10:19;;;;;;;11.15;5.72;;;12.80;96.70;;;;;;4997174;28;20440;-74
2023/01/15 12:13:05;;;;;;;9.93;5.18;;;13.20;96.70;;;;;;4958602;28;20058;-75
2023/01/15 12:15:50;;;;;;;8.88;5.20;;;13.60;96.70;;;;;;4965000;28;20081;-77
2023/01/15 12:19:02;;;;;;;11.20;7.43;;;13.90;96.70;;;;;;5001721;28;20104;-75
2023/01/15 12:22:01;;;;;;;8.23;5.38;;;14.20;96.70;;;;;;4974247;28;20061;-75
2023/01/15 12:25:20;;;;;;;11.32;5.28;;;14.30;96.70;;;;;;4981398;28;20093;-75
2023/01/15 12:28:03;;;;;;;8.45;4.97;;;14.30;96.70;;;;;;4968659;28;20542;-75
2023/01/15 12:30:38;;;;;;;8.48;5.10;;;14.20;96.70;;;;;;4983169;28;20787;-76
2023/01/15 12:33:18;;;;;;;8.68;5.72;;;14.10;96.70;;;;;;4976026;28;20784;-75
2023/01/15 12:35:55;;;;;;;7.43;5.20;;;14.00;96.70;;;;;;4983044;28;20190;-77
2023/01/15 12:38:38;;;;;;;8.40;4.38;;;13.90;96.70;;;;;;4983173;28;20054;-75
2023/01/15 12:41:10;;;;;;;7.35;4.75;;;13.90;96.70;;;;;;5001035;28;20591;-75
2023/01/15 12:46:38;;;;;;;8.30;4.63;;;13.80;96.70;;;;;;4972973;28;20050;-75
2023/01/15 12:49:15;;;;;;;12.60;5.32;;;13.80;96.70;;;;;;4981313;28;20424;-75
2023/01/15 12:51:49;;;;;;;11.05;7.95;;;13.80;96.70;;;;;;4976326;28;20050;-75
2023/01/15 12:54:22;;;;;;;8.85;5.40;;;14.00;96.70;;;;;;4998030;28;20057;-75
2023/01/15 12:56:58;;;;;;;7.53;5.35;;;14.10;96.70;;;;;;4985776;28;20072;-75
2023/01/15 12:59:36;;;;;;;8.00;5.53;;;14.00;96.70;;;;;;4983609;28;20046;-75
2023/01/15 13:02:19;;;;;;;7.07;5.65;;;14.00;96.70;;;;;;4983643;28;20054;-75
2023/01/15 13:04:50;;;;;;;11.70;6.07;;;14.00;96.70;;;;;;4979558;28;20042;-76
2023/01/15 13:07:25;;;;;;;9.05;5.20;;;13.90;96.70;;;;;;4994790;28;20046;-75
2023/01/15 13:10:00;;;;;;;10.38;6.18;;;13.80;96.70;;;;;;4984274;28;20054;-75
2023/01/15 13:12:29;;;;;;;19.75;13.75;;;13.70;96.70;;;;;;4976993;28;20053;-75
2023/01/15 13:15:01;;;;;;;12.52;7.60;;;13.50;96.70;;;;;;4999771;28;20122;-75
2023/01/15 13:17:37;;;;;;;12.23;7.97;;;13.50;96.70;;;;;;4984044;28;20038;-75
2023/01/15 13:20:14;;;;;;;;;;;13.40;96.70;;;;;;4984729;28;20062;-76
2023/01/15 13:22:52;;;;;;;11.80;6.30;;;13.30;96.70;;;;;;4984453;28;19932;-76
2023/01/15 13:25:53;;;;;;;16.05;9.90;;;13.30;96.70;;;;;;4979029;28;20547;-76
2023/01/15 13:28:45;;;;;;;17.42;10.85;;;13.30;96.70;;;;;;4933653;28;20062;-76
2023/01/15 13:31:34;;;;;;;16.15;10.70;;;13.30;96.70;;;;;;4976557;28;20432;-76
2023/01/15 13:34:11;;;;;;;17.45;10.90;;;13.30;96.70;;;;;;4982269;28;20057;-75
2023/01/15 13:36:42;;;;;;;13.60;9.65;;;13.20;96.70;;;;;;4974332;28;20047;-76
2023/01/15 13:39:17;;;;;;;11.40;8.15;;;13.20;96.70;;;;;;4999427;28;20061;-75
2023/01/15 13:44:38;;;;;;;10.13;6.68;;;13.10;96.70;;;;;;4979639;28;20522;-75
2023/01/15 13:47:12;;;;;;;9.50;6.32;;;13.10;96.70;;;;;;4983692;28;20078;-75
2023/01/15 13:49:47;;;;;;;9.90;6.00;;;13.10;96.70;;;;;;4981444;28;20041;-76
2023/01/15 13:52:23;;;;;;;9.52;6.40;;;13.10;96.70;;;;;;4975986;28;20055;-76
2023/01/15 13:54:54;;;;;;;10.52;6.97;;;13.10;96.70;;;;;;4984726;28;20049;-75
2023/01/15 13:57:24;;;;;;;13.30;8.40;;;13.10;96.70;;;;;;4984582;28;20575;-76
2023/01/15 13:59:52;;;;;;;12.95;7.82;;;13.20;96.70;;;;;;4983197;28;20097;-75
2023/01/15 14:02:27;;;;;;;12.75;7.72;;;13.20;96.70;;;;;;4983667;28;20491;-76
2023/01/15 14:04:56;;;;;;;12.27;7.53;;;13.30;96.70;;;;;;4983480;28;20052;-76
2023/01/15 14:07:33;;;;;;;10.63;7.50;;;13.30;96.70;;;;;;4971436;28;20081;-75